createdAt,value
2023-03-21T00:04:44.549Z,101151.00
2023-03-21T00:10:04.784Z,101146.63
2023-03-21T00:15:09.455Z,101153.00
2023-03-21T00:20:16.201Z,101144.25
2023-03-21T00:25:20.528Z,101148.63
2023-03-21T00:30:23.930Z,101143.09
2023-03-21T00:40:51.851Z,101131.56
2023-03-21T00:45:54.674Z,101125.97
2023-03-21T00:50:59.353Z,101132.50
2023-03-21T00:56:03.514Z,101120.47
2023-03-21T01:01:09.328Z,101127.66
2023-03-21T01:06:13.777Z,101107.78
2023-03-21T01:11:20.556Z,101107.50
2023-03-21T01:16:23.322Z,101106.78
2023-03-21T01:21:26.339Z,101109.97
2023-03-21T01:26:30.777Z,101107.19
2023-03-21T01:31:33.737Z,101110.38
2023-03-21T01:36:36.944Z,101098.91
2023-03-21T01:41:45.037Z,101107.19
2023-03-21T01:47:11.180Z,101102.28
2023-03-21T01:52:39.054Z,101098.00
2023-03-21T01:58:07.312Z,101094.50
2023-03-21T02:03:52.126Z,101091.94
2023-03-21T02:09:10.784Z,101088.91
2023-03-21T02:14:26.624Z,101087.16
2023-03-21T02:20:12.856Z,101086.81
2023-03-21T02:26:00.972Z,101078.84
2023-03-21T02:31:19.891Z,101079.75
2023-03-21T02:36:31.545Z,101063.00
2023-03-21T02:41:46.714Z,101069.97
2023-03-21T02:47:03.170Z,101065.59
2023-03-21T02:52:17.154Z,101071.78
2023-03-21T02:57:40.053Z,101068.59
2023-03-21T03:02:47.424Z,101065.75
2023-03-21T03:08:17.270Z,101051.72
2023-03-21T03:13:36.641Z,101055.19
2023-03-21T03:18:46.242Z,101052.97
2023-03-21T03:23:52.348Z,101035.16
2023-03-21T03:29:01.812Z,101030.25
2023-03-21T03:34:09.048Z,101035.09
2023-03-21T03:39:16.867Z,101038.00
2023-03-21T03:44:28.392Z,101036.50
2023-03-21T03:49:43.122Z,101039.38
2023-03-21T03:54:48.730Z,101038.06
2023-03-21T03:59:53.891Z,101035.28
2023-03-21T04:05:21.230Z,101035.50
2023-03-21T04:10:24.256Z,101029.69
2023-03-21T04:15:28.776Z,101025.28
2023-03-21T04:20:38.812Z,101035.09
2023-03-21T04:25:55.463Z,101029.44
2023-03-21T04:31:05.249Z,101027.09
2023-03-21T04:36:27.322Z,101023.41
2023-03-21T04:41:33.487Z,101014.50
2023-03-21T04:46:38.483Z,101018.25
2023-03-21T04:51:43.993Z,101016.22
2023-03-21T04:56:48.535Z,101018.47
2023-03-21T05:01:52.868Z,101012.22
2023-03-21T05:06:55.879Z,101019.94
2023-03-21T05:11:58.595Z,101017.38
2023-03-21T05:17:05.122Z,101011.59
2023-03-21T05:22:10.803Z,101018.91
2023-03-21T05:27:26.083Z,101011.63
2023-03-21T05:32:30.449Z,101011.59
2023-03-21T05:37:33.549Z,101009.09
2023-03-21T05:42:36.590Z,101000.22
2023-03-21T05:47:49.498Z,100999.25
2023-03-21T05:52:52.912Z,101000.25
2023-03-21T05:57:56.030Z,101003.72
2023-03-21T06:03:04.712Z,101004.59
2023-03-21T06:08:22.488Z,100997.28
2023-03-21T06:13:26.162Z,100992.72
2023-03-21T06:18:30.728Z,100988.25
2023-03-21T06:23:56.507Z,100988.69
2023-03-21T06:28:59.454Z,100988.34
2023-03-21T06:34:03.934Z,100994.03
2023-03-21T06:39:08.751Z,100992.00
2023-03-21T06:44:14.829Z,100986.47
2023-03-21T06:49:27.878Z,100990.31
2023-03-21T06:54:34.640Z,100992.22
2023-03-21T06:59:44.703Z,100993.63
2023-03-21T07:04:54.942Z,100995.34
2023-03-21T07:10:00.421Z,100993.72
2023-03-21T07:15:09.439Z,100994.72
2023-03-21T07:20:14.858Z,100984.66
2023-03-21T07:25:20.026Z,100989.69
2023-03-21T07:30:23.516Z,100982.31
2023-03-21T07:35:27.681Z,100981.19
2023-03-21T07:40:30.799Z,100989.59
2023-03-21T07:45:33.937Z,100984.25
2023-03-21T07:50:38.031Z,100986.66
2023-03-21T07:55:43.208Z,100979.41
2023-03-21T08:00:46.233Z,100987.25
2023-03-21T08:05:50.691Z,100983.72
2023-03-21T08:10:53.515Z,100984.25
2023-03-21T08:15:56.242Z,100976.06
2023-03-21T08:21:00.446Z,100973.91
2023-03-21T08:26:03.441Z,100978.31
2023-03-21T08:31:08.952Z,100967.81
2023-03-21T08:36:13.631Z,100978.13
2023-03-21T08:41:16.560Z,100981.81
2023-03-21T08:46:19.325Z,100969.03
2023-03-21T08:51:23.537Z,100973.75
2023-03-21T08:56:26.584Z,100976.38
2023-03-21T09:01:29.711Z,100976.84
2023-03-21T09:06:34.101Z,100972.16
2023-03-21T09:11:37.173Z,100970.03
2023-03-21T09:16:40.198Z,100964.56
2023-03-21T09:21:44.703Z,100960.59
2023-03-21T09:26:53.466Z,100968.75
2023-03-21T09:31:57.595Z,100965.66
2023-03-21T09:37:02.286Z,100960.16
2023-03-21T09:42:19.658Z,100962.03
2023-03-21T09:47:25.077Z,100961.78
2023-03-21T09:52:34.672Z,100966.50
2023-03-21T09:57:41.770Z,100957.97
2023-03-21T10:02:47.203Z,100963.47
2023-03-21T10:07:57.906Z,100956.41
2023-03-21T10:13:00.780Z,100956.66
2023-03-21T10:18:07.435Z,100950.34
2023-03-21T10:23:16.794Z,100940.50
2023-03-21T10:28:22.120Z,100934.41
2023-03-21T10:33:28.697Z,100934.28
2023-03-21T10:38:33.020Z,100935.25
2023-03-21T10:43:38.726Z,100939.59
2023-03-21T10:48:46.162Z,100932.00
2023-03-21T10:53:55.953Z,100934.22
2023-03-21T10:59:00.961Z,100935.69
2023-03-21T11:04:09.484Z,100924.03
2023-03-21T11:09:17.528Z,100926.47
2023-03-21T11:14:34.350Z,100907.28
2023-03-21T11:19:37.460Z,100905.16
2023-03-21T11:24:42.914Z,100912.25
2023-03-21T11:29:48.866Z,100907.13
2023-03-21T11:34:57.752Z,100901.91
2023-03-21T11:40:19.198Z,100895.66
2023-03-21T11:45:24.433Z,100895.38
2023-03-21T11:50:32.610Z,100879.47
2023-03-21T11:55:51.242Z,100889.81
2023-03-21T12:01:03.302Z,100877.00
2023-03-21T12:06:17.398Z,100869.06
2023-03-21T12:11:30.545Z,100866.19
2023-03-21T12:16:45.229Z,100861.41
2023-03-21T12:22:00.169Z,100853.00
2023-03-21T12:27:12.669Z,100849.56
2023-03-21T12:32:26.238Z,100849.44
2023-03-21T12:37:38.399Z,100841.72
2023-03-21T12:42:59.120Z,100842.44
2023-03-21T12:48:09.181Z,100836.97
2023-03-21T12:53:36.038Z,100826.00
2023-03-21T12:58:48.309Z,100822.75
2023-03-21T13:03:59.266Z,100818.94
2023-03-21T13:09:07.953Z,100808.25
2023-03-21T13:14:18.743Z,100801.84
2023-03-21T13:19:29.852Z,100794.94
2023-03-21T13:24:39.229Z,100795.16
2023-03-21T13:29:49.736Z,100785.88
2023-03-21T13:34:57.202Z,100790.53
2023-03-21T13:40:09.368Z,100784.47
2023-03-21T13:45:26.537Z,100791.59
2023-03-21T13:50:37.490Z,100784.75
2023-03-21T13:55:43.199Z,100776.34
2023-03-21T14:01:07.875Z,100777.47
2023-03-21T14:06:12.276Z,100774.25
2023-03-21T14:11:18.756Z,100764.53
2023-03-21T14:16:28.519Z,100764.38
2023-03-21T14:21:33.869Z,100756.69
2023-03-21T14:26:41.172Z,100750.28
2023-03-21T14:31:46.836Z,100754.44
2023-03-21T14:36:57.785Z,100739.72
2023-03-21T14:42:05.305Z,100747.75
2023-03-21T14:47:19.046Z,100739.06
2023-03-21T14:52:25.753Z,100739.28
2023-03-21T14:57:31.775Z,100736.38
2023-03-21T15:02:39.155Z,100716.72
2023-03-21T15:07:42.152Z,100712.06
2023-03-21T15:12:52.398Z,100706.34
2023-03-21T15:18:01.606Z,100694.56
2023-03-21T15:23:12.201Z,100703.22
2023-03-21T15:28:15.372Z,100695.13
2023-03-21T15:33:20.588Z,100701.84
2023-03-21T15:38:29.306Z,100695.00
2023-03-21T15:43:40.841Z,100691.06
2023-03-21T15:48:45.827Z,100687.41
2023-03-21T15:53:49.700Z,100695.91
2023-03-21T15:58:53.778Z,100683.25
2023-03-21T16:03:59.705Z,100693.25
2023-03-21T16:09:14.059Z,100692.75
2023-03-21T16:14:17.576Z,100686.75
2023-03-21T16:19:22.004Z,100693.13
2023-03-21T16:24:24.759Z,100693.38
2023-03-21T16:29:27.480Z,100687.19
2023-03-21T16:34:32.160Z,100686.34
2023-03-21T16:39:34.939Z,100675.63
2023-03-21T16:44:39.131Z,100684.41
2023-03-21T16:49:43.565Z,100680.31
2023-03-21T16:54:46.287Z,100665.78
2023-03-21T16:59:49.078Z,100662.00
2023-03-21T17:04:53.341Z,100676.84
2023-03-21T17:09:56.321Z,100672.53
2023-03-21T17:14:59.044Z,100670.00
2023-03-21T17:20:11.227Z,100673.09
2023-03-21T17:25:14.076Z,100667.00
2023-03-21T17:30:25.294Z,100657.78
2023-03-21T17:35:29.838Z,100663.44
2023-03-21T17:40:34.486Z,100664.19
2023-03-21T17:45:37.261Z,100670.94
2023-03-21T17:50:41.429Z,100672.75
2023-03-21T17:55:44.299Z,100676.84
2023-03-21T18:00:47.418Z,100674.84
2023-03-21T18:05:52.026Z,100667.31
2023-03-21T18:10:54.770Z,100668.50
2023-03-21T18:15:59.785Z,100662.13
2023-03-21T18:21:04.295Z,100668.25
2023-03-21T18:26:07.928Z,100667.31
2023-03-21T18:31:19.429Z,100659.34
2023-03-21T18:36:26.330Z,100663.44
2023-03-21T18:41:30.993Z,100651.84
2023-03-21T18:46:33.920Z,100642.97
2023-03-21T18:51:38.091Z,100651.59
2023-03-21T19:02:06.038Z,100650.66
2023-03-21T19:07:10.394Z,100650.41
2023-03-21T19:12:13.229Z,100660.84
2023-03-21T19:18:07.183Z,100650.28
2023-03-21T19:22:40.447Z,100656.22
2023-03-21T19:27:43.853Z,100654.34
2023-03-21T19:32:47.118Z,100652.22
2023-03-21T19:37:51.368Z,100637.69
2023-03-21T19:42:54.169Z,100639.78
2023-03-21T19:47:58.338Z,100633.72
2023-03-21T19:53:02.442Z,100643.03
2023-03-21T19:58:06.031Z,100635.28
2023-03-21T20:03:09.713Z,100624.72
2023-03-21T20:08:14.442Z,100628.31
2023-03-21T20:13:17.238Z,100618.53
2023-03-21T20:18:20.630Z,100617.94
2023-03-21T20:23:24.762Z,100609.16
2023-03-21T20:28:28.961Z,100612.56
2023-03-21T20:33:32.800Z,100605.44
2023-03-21T20:38:39.454Z,100612.19
2023-03-21T20:49:06.575Z,100614.81
2023-03-21T20:54:11.149Z,100608.66
2023-03-21T20:59:23.200Z,100609.00
2023-03-21T21:04:47.227Z,100597.84
2023-03-21T21:09:55.482Z,100595.94
2023-03-21T21:14:58.264Z,100597.09
2023-03-21T21:20:12.214Z,100593.41
2023-03-21T21:25:17.390Z,100584.50
2023-03-21T21:30:29.942Z,100583.47
2023-03-21T21:35:33.523Z,100575.44
2023-03-21T21:40:38.044Z,100573.63
2023-03-21T21:45:41.595Z,100563.56
2023-03-21T21:50:44.523Z,100561.41
2023-03-21T21:55:49.486Z,100565.03
2023-03-21T22:00:52.292Z,100574.38
2023-03-21T22:06:02.804Z,100572.63
2023-03-21T22:11:07.565Z,100563.13
2023-03-21T22:16:11.146Z,100571.00
2023-03-21T22:21:14.046Z,100553.88
2023-03-21T22:26:18.226Z,100558.34
2023-03-21T22:31:22.579Z,100547.75
2023-03-21T22:36:25.419Z,100542.03
2023-03-21T22:41:29.540Z,100542.34
2023-03-21T22:46:32.248Z,100533.22
2023-03-21T22:51:35.198Z,100531.22
2023-03-21T22:56:39.343Z,100531.56
2023-03-21T23:01:42.097Z,100532.84
2023-03-21T23:06:46.131Z,100539.16
2023-03-21T23:11:50.282Z,100533.41
2023-03-21T23:16:54.796Z,100530.66
2023-03-21T23:21:58.534Z,100523.06
2023-03-21T23:27:02.937Z,100522.50
2023-03-21T23:32:06.185Z,100519.50
2023-03-21T23:37:09.322Z,100522.69
2023-03-21T23:42:13.604Z,100525.94
2023-03-21T23:47:16.646Z,100524.31
2023-03-21T23:52:19.787Z,100513.00
2023-03-21T23:57:24.088Z,100501.34
